ADDS METAR Data INFO
IDs: Format: Raw Decoded Include TAF

Data at: 2031 UTC 20 Jul 2017

METAR for:KIAH (Houston/Bush Intl, TX, US)
Text:KIAH 201953Z VRB03KT 10SM SCT050 34/22 A3005 RMK AO2 SLP176 T03440217
Temperature: 34.4°C ( 94°F)
Dewpoint: 21.7°C ( 71°F) [RH = 48%]
Pressure (altimeter):30.05 inches Hg (1017.7 mb) [Sea level pressure: 1017.6 mb]
Winds:variable direction winds at 3 MPH (3 knots; 1.5 m/s)
Visibility:10 or more sm (16+ km)
Ceiling:at least 12,000 feet AGL
Clouds: scattered clouds at 5000 feet AGL

METAR for:KHOU (Houston/Hobby Arpt, TX, US)
Text:KHOU 201953Z 18005KT 10SM SCT050 SCT250 36/22 A3005 RMK AO2 SLP180 T03560222
Temperature: 35.6°C ( 96°F)
Dewpoint: 22.2°C ( 72°F) [RH = 46%]
Pressure (altimeter):30.05 inches Hg (1017.7 mb) [Sea level pressure: 1018.0 mb]
Winds:from the S (180 degrees) at 6 MPH (5 knots; 2.6 m/s)
Visibility:10 or more sm (16+ km)
Ceiling:at least 12,000 feet AGL
Clouds: scattered clouds at 5000 feet AGL, scattered clouds at 25000 feet AGL

METAR for:KGLS (Galveston/Scholes In, TX, US)
Text:KGLS 201952Z 13009KT 10SM SCT045 32/24 A3008 RMK AO2 SLP185 T03220244
Temperature: 32.2°C ( 90°F)
Dewpoint: 24.4°C ( 76°F) [RH = 64%]
Pressure (altimeter):30.08 inches Hg (1018.7 mb) [Sea level pressure: 1018.5 mb]
Winds:from the SE (130 degrees) at 10 MPH (9 knots; 4.6 m/s)
Visibility:10 or more sm (16+ km)
Ceiling:at least 12,000 feet AGL
Clouds: scattered clouds at 4500 feet AGL

METAR for:KLVJ (Houston/Pearland Rgn, TX, US)
Text:KLVJ 201953Z AUTO VRB04KT 10SM CLR 36/20 A3007 RMK AO2 SLP181 T03560200
Temperature: 35.6°C ( 96°F)
Dewpoint: 20.0°C ( 68°F) [RH = 40%]
Pressure (altimeter):30.07 inches Hg (1018.4 mb) [Sea level pressure: 1018.1 mb]
Winds:variable direction winds at 5 MPH (4 knots; 2.1 m/s)
Visibility:10 or more sm (16+ km)
Ceiling:at least 12,000 feet AGL
Clouds:sky clear below 12,000 feet AGL
QC Flag:automated observation with no human augmentation

METAR for:KSGR (Houston/Sugar Land R, TX, US)
Text:KSGR 201953Z 25004KT 10SM CLR 36/22 A3005 RMK AO2 SLP176 T03560222
Temperature: 35.6°C ( 96°F)
Dewpoint: 22.2°C ( 72°F) [RH = 46%]
Pressure (altimeter):30.05 inches Hg (1017.7 mb) [Sea level pressure: 1017.6 mb]
Winds:from the WSW (250 degrees) at 5 MPH (4 knots; 2.1 m/s)
Visibility:10 or more sm (16+ km)
Ceiling:at least 12,000 feet AGL
Clouds:sky clear below 12,000 feet AGL

METAR for:KDWH (Houston/Hooks Mem, TX, US)
Text:KDWH 201953Z COR 18004KT 10SM SCT055 35/22 A3006 RMK AO2 SLP175 T03500217
Temperature: 35.0°C ( 95°F)
Dewpoint: 21.7°C ( 71°F) [RH = 46%]
Pressure (altimeter):30.06 inches Hg (1018.0 mb) [Sea level pressure: 1017.5 mb]
Winds:from the S (180 degrees) at 5 MPH (4 knots; 2.1 m/s)
Visibility:10 or more sm (16+ km)
Ceiling:at least 12,000 feet AGL
Clouds: scattered clouds at 5500 feet AGL

METAR for:KCLL (College Station/East, TX, US)
Text:KCLL 201953Z VRB04KT 10SM CLR 35/21 A3005 RMK AO2 SLP169 T03500206
Temperature: 35.0°C ( 95°F)
Dewpoint: 20.6°C ( 69°F) [RH = 43%]
Pressure (altimeter):30.05 inches Hg (1017.7 mb) [Sea level pressure: 1016.9 mb]
Winds:variable direction winds at 5 MPH (4 knots; 2.1 m/s)
Visibility:10 or more sm (16+ km)
Ceiling:at least 12,000 feet AGL
Clouds:sky clear below 12,000 feet AGL

METAR for:KUTS (Huntsville Muni, TX, US)
Text:KUTS 201953Z AUTO 18004KT 10SM CLR 34/19 A3008 RMK AO2 SLP178 T03440194
Temperature: 34.4°C ( 94°F)
Dewpoint: 19.4°C ( 67°F) [RH = 41%]
Pressure (altimeter):30.08 inches Hg (1018.7 mb) [Sea level pressure: 1017.8 mb]
Winds:from the S (180 degrees) at 5 MPH (4 knots; 2.1 m/s)
Visibility:10 or more sm (16+ km)
Ceiling:at least 12,000 feet AGL
Clouds:sky clear below 12,000 feet AGL
QC Flag:automated observation with no human augmentation

METAR for:KCXO (Conroe/Executive Arp, TX, US)
Text:KCXO 201953Z 00000KT 10SM SCT048 34/22 A3007 RMK AO2 SLP178 T03440217
Temperature: 34.4°C ( 94°F)
Dewpoint: 21.7°C ( 71°F) [RH = 48%]
Pressure (altimeter):30.07 inches Hg (1018.4 mb) [Sea level pressure: 1017.8 mb]
Winds:calm
Visibility:10 or more sm (16+ km)
Ceiling:at least 12,000 feet AGL
Clouds: scattered clouds at 4800 feet AGL

METAR for:KLBX (Angleton/Texas Gulf, TX, US)
Text:KLBX 201953Z AUTO 13007KT 10SM BKN049 34/25 A3006 RMK AO2 SLP180 T03440250
Temperature: 34.4°C ( 94°F)
Dewpoint: 25.0°C ( 77°F) [RH = 58%]
Pressure (altimeter):30.06 inches Hg (1018.0 mb) [Sea level pressure: 1018.0 mb]
Winds:from the SE (130 degrees) at 8 MPH (7 knots; 3.6 m/s)
Visibility:10 or more sm (16+ km)
Ceiling:4900 feet AGL
Clouds: broken clouds at 4900 feet AGL
QC Flag:automated observation with no human augmentation

METAR for:KPSX (Palacios Muni, TX, US)
Text:KPSX 202020Z AUTO 19011KT 10SM VCTS CLR 32/25 A3005 RMK AO2 LTG DSNT NE T03220250
Temperature: 32.2°C ( 90°F)
Dewpoint: 25.0°C ( 77°F) [RH = 66%]
Pressure (altimeter):30.05 inches Hg (1017.7 mb)
Winds:from the S (190 degrees) at 13 MPH (11 knots; 5.7 m/s)
Visibility:10 or more sm (16+ km)
Ceiling:at least 12,000 feet AGL
Clouds:sky clear below 12,000 feet AGL
Weather:VCTS (thunderstorm in vicinity)
QC Flag:automated observation with no human augmentation